Time;durP1;ratioP1;P1;durP2;ratioP2;P2;SDS_P1;SDS_P2;PMS_P1;PMS_P2;Temp;Humidity;BMP_temperature;BMP_pressure;BME280_temperature;BME280_humidity;BME280_pressure;Samples;Min_cycle;Max_cycle;Signal;HPM_P1;HPM_P2
2023/10/15 00:00:34;;;;;;;9.77;2.45;;;;;;;8.18;84.72;100470.31;5025933;28;20057;-55
2023/10/15 00:03:03;;;;;;;16.38;2.70;;;;;;;8.21;83.99;100462.28;5022747;28;20459;-50
2023/10/15 00:05:30;;;;;;;11.95;2.25;;;;;;;8.20;83.92;100461.44;5023708;28;20049;-51
2023/10/15 00:07:58;;;;;;;13.90;3.28;;;;;;;8.15;84.74;100465.19;5025029;28;20075;-53
2023/10/15 00:10:27;;;;;;;10.80;2.85;;;;;;;8.14;83.77;100461.75;5021636;28;20073;-56
2023/10/15 00:12:56;;;;;;;13.80;2.95;;;;;;;8.08;84.59;100465.53;5025511;28;20104;-52
2023/10/15 00:15:25;;;;;;;13.32;2.35;;;;;;;8.08;84.82;100459.44;5026030;28;20099;-56
2023/10/15 00:17:59;;;;;;;10.65;2.53;;;;;;;8.06;85.10;100463.91;5024717;28;20470;-52
2023/10/15 00:20:40;;;;;;;19.10;3.10;;;;;;;8.05;84.92;100449.94;5027082;28;20144;-57
2023/10/15 00:23:09;;;;;;;11.55;2.88;;;;;;;8.04;84.87;100458.75;5023958;28;20046;-53
2023/10/15 00:25:38;;;;;;;18.00;3.00;;;;;;;8.06;85.19;100461.28;5025810;28;20613;-53
2023/10/15 00:28:09;;;;;;;12.35;2.65;;;;;;;8.03;84.81;100461.44;5024468;28;20068;-54
2023/10/15 00:30:39;;;;;;;8.98;2.75;;;;;;;8.02;85.11;100468.47;5026219;28;20107;-57
2023/10/15 00:33:09;;;;;;;14.73;3.13;;;;;;;8.02;84.43;100465.84;5025315;28;20526;-55
2023/10/15 00:35:37;;;;;;;20.38;3.65;;;;;;;8.04;84.86;100469.22;5024820;28;20045;-55
2023/10/15 00:38:11;;;;;;;13.65;3.20;;;;;;;7.97;84.81;100448.63;5025520;28;20133;-57
2023/10/15 00:40:38;;;;;;;15.40;2.47;;;;;;;8.01;84.79;100473.78;5023870;28;20081;-54
2023/10/15 00:43:05;;;;;;;23.83;3.97;;;;;;;7.94;84.68;100468.00;5023337;28;20077;-54
2023/10/15 00:45:45;;;;;;;14.57;2.58;;;;;;;7.94;85.41;100472.41;5024859;28;20096;-51
2023/10/15 00:48:24;;;;;;;15.40;3.03;;;;;;;7.90;85.43;100465.63;5026861;28;20160;-55
2023/10/15 00:50:53;;;;;;;15.57;2.78;;;;;;;7.84;85.50;100470.25;5027897;28;20088;-52
2023/10/15 00:53:22;;;;;;;14.30;2.67;;;;;;;7.84;85.76;100472.88;5026669;28;20081;-56
2023/10/15 00:56:04;;;;;;;14.88;2.83;;;;;;;7.84;85.49;100458.91;5029319;28;20053;-56
2023/10/15 00:58:39;;;;;;;12.85;3.30;;;;;;;7.81;85.32;100459.06;5027167;28;20099;-53
2023/10/15 01:03:54;;;;;;;17.67;3.22;;;;;;;7.78;85.29;100488.88;5027732;28;20080;-55
2023/10/15 01:07:00;;;;;;;8.85;2.20;;;;;;;7.80;85.76;100483.56;5039735;28;20141;-55
2023/10/15 01:09:27;;;;;;;16.85;2.38;;;;;;;7.79;85.85;100481.84;5035106;28;20057;-51
2023/10/15 01:11:56;;;;;;;10.23;3.08;;;;;;;7.75;85.90;100489.06;5029580;28;20084;-50
2023/10/15 01:14:32;;;;;;;15.05;2.90;;;;;;;7.75;86.29;100481.19;5026557;28;20569;-55
2023/10/15 01:17:00;;;;;;;11.13;2.50;;;;;;;7.74;87.00;100483.88;5026973;28;20073;-54
2023/10/15 01:19:33;;;;;;;11.45;2.45;;;;;;;7.66;87.06;100479.03;5026592;28;20095;-57
2023/10/15 01:22:18;;;;;;;15.98;3.22;;;;;;;7.66;87.39;100475.56;5026963;28;20081;-55
2023/10/15 01:24:53;;;;;;;15.10;3.30;;;;;;;7.63;86.04;100517.63;5027997;28;20088;-53
2023/10/15 01:27:44;;;;;;;9.75;3.13;;;;;;;7.63;86.76;100491.41;5028392;28;20049;-52
2023/10/15 01:30:09;;;;;;;10.20;2.72;;;;;;;7.64;85.66;100478.22;5024251;28;20358;-55
2023/10/15 01:32:38;;;;;;;18.65;3.42;;;;;;;7.61;86.19;100479.25;5027182;28;20115;-53
2023/10/15 01:35:10;;;;;;;17.00;3.00;;;;;;;7.59;86.59;100488.09;5042645;28;20187;-55
2023/10/15 01:37:38;;;;;;;13.10;2.90;;;;;;;7.58;86.94;100476.78;5029201;28;20586;-51
2023/10/15 01:42:40;;;;;;;13.55;3.15;;;;;;;7.55;86.72;100484.75;5027941;28;20088;-52
2023/10/15 01:47:37;;;;;;;13.63;2.80;;;;;;;7.54;86.81;100482.22;5028459;28;20571;-56
2023/10/15 01:50:15;;;;;;;16.45;3.60;;;;;;;7.53;86.58;100493.63;5025615;28;20061;-56
2023/10/15 01:52:42;;;;;;;11.20;3.05;;;;;;;7.55;86.64;100487.38;5026989;28;20183;-56
2023/10/15 01:55:12;;;;;;;14.80;3.22;;;;;;;7.54;86.90;100497.94;5028243;28;20522;-57
2023/10/15 01:57:41;;;;;;;12.85;2.72;;;;;;;7.51;86.60;100492.84;5028190;28;20119;-55
2023/10/15 02:00:32;;;;;;;18.73;3.25;;;;;;;7.50;86.93;100533.06;5025466;28;20440;-57
2023/10/15 02:03:00;;;;;;;12.15;3.38;;;;;;;7.57;86.17;100505.66;5027289;28;20073;-55
2023/10/15 02:05:41;;;;;;;18.95;3.35;;;;;;;7.49;86.97;100516.50;5026762;28;20480;-52
2023/10/15 02:08:12;;;;;;;13.52;3.03;;;;;;;7.48;86.55;100506.97;5027638;28;20088;-53
2023/10/15 02:10:46;;;;;;;12.35;2.80;;;;;;;7.47;87.36;100507.00;5028210;28;20146;-53
2023/10/15 02:13:17;;;;;;;14.10;2.92;;;;;;;7.45;86.81;100494.00;5026575;28;20072;-55
2023/10/15 02:15:45;;;;;;;11.75;2.58;;;;;;;7.51;86.96;100495.47;5028202;28;20428;-54
2023/10/15 02:18:17;;;;;;;16.40;2.67;;;;;;;7.53;87.03;100501.50;5028116;28;20123;-57
2023/10/15 02:21:00;;;;;;;20.10;3.30;;;;;;;7.57;86.72;100493.41;5027524;28;20126;-57
2023/10/15 02:23:32;;;;;;;12.88;2.78;;;;;;;7.52;86.72;100494.53;5027131;28;20161;-53
2023/10/15 02:26:00;;;;;;;13.40;2.72;;;;;;;7.56;87.11;100490.84;5028645;28;20046;-55
2023/10/15 02:28:31;;;;;;;16.08;3.13;;;;;;;7.57;86.25;100503.91;5027332;28;20045;-52
2023/10/15 02:33:30;;;;;;;12.38;2.90;;;;;;;7.67;85.18;100506.91;5026362;28;20504;-54
2023/10/15 02:35:59;;;;;;;16.77;3.42;;;;;;;7.72;85.12;100502.28;5025508;28;20566;-55
2023/10/15 02:38:36;;;;;;;15.65;3.58;;;;;;;7.65;85.18;100506.13;5027621;28;20193;-53
2023/10/15 02:43:31;;;;;;;15.55;2.35;;;;;;;7.58;85.17;100502.97;5025841;28;20368;-57
2023/10/15 02:48:47;;;;;;;10.85;3.35;;;;;;;7.45;85.99;100496.63;5026855;28;20081;-52
2023/10/15 02:51:23;;;;;;;21.58;3.83;;;;;;;7.42;86.51;100496.75;5028540;28;20076;-57
2023/10/15 02:54:37;;;;;;;17.95;3.40;;;;;;;7.34;87.36;100502.38;5026014;28;20110;-52
2023/10/15 02:56:41;;;;;;;12.10;3.17;;;;;;;7.36;87.50;100499.69;5028685;28;20456;-53
2023/10/15 02:59:08;;;;;;;13.82;2.95;;;;;;;7.29;87.56;100503.50;5027437;28;20112;-58
2023/10/15 03:01:35;;;;;;;14.38;3.13;;;;;;;7.25;88.05;100508.06;5026109;28;20073;-57
2023/10/15 03:04:07;;;;;;;14.32;2.60;;;;;;;7.22;88.30;100508.19;5022594;28;20057;-56
2023/10/15 03:06:34;;;;;;;16.08;3.45;;;;;;;7.21;88.45;100516.13;5025171;28;20119;-53
2023/10/15 03:09:11;;;;;;;15.90;3.05;;;;;;;7.20;88.42;100512.63;5022363;28;20061;-50
2023/10/15 03:11:50;;;;;;;9.88;2.92;;;;;;;7.16;88.84;100515.47;5028702;28;20452;-53
2023/10/15 03:14:17;;;;;;;14.40;3.10;;;;;;;7.17;89.35;100510.19;5024618;28;20053;-56
2023/10/15 03:16:44;;;;;;;11.35;3.20;;;;;;;7.14;89.42;100506.84;5027173;28;20045;-54
2023/10/15 03:19:23;;;;;;;14.05;3.08;;;;;;;7.08;89.19;100511.44;5025896;28;20053;-52
2023/10/15 03:21:58;;;;;;;19.35;3.92;;;;;;;7.05;89.54;100513.34;5024208;28;20062;-54
2023/10/15 03:24:27;;;;;;;14.15;3.05;;;;;;;7.03;89.76;100516.06;5024307;28;20556;-55
2023/10/15 03:26:56;;;;;;;16.88;3.20;;;;;;;7.01;90.00;100512.63;5024861;28;20167;-55
2023/10/15 03:29:23;;;;;;;16.35;3.15;;;;;;;6.99;90.01;100518.88;5027246;28;20117;-54
2023/10/15 03:31:58;;;;;;;11.90;3.10;;;;;;;7.00;89.92;100528.41;5026290;28;20140;-55
2023/10/15 03:34:28;;;;;;;18.97;2.73;;;;;;;6.98;89.50;100520.66;5023576;28;20523;-55
2023/10/15 03:36:59;;;;;;;13.10;3.00;;;;;;;6.98;90.06;100518.03;5025641;28;20115;-56
2023/10/15 03:44:44;;;;;;;12.63;3.80;;;;;;;6.94;91.08;100519.09;5022737;28;20116;-55
2023/10/15 03:47:13;;;;;;;15.00;3.22;;;;;;;6.90;90.78;100525.38;5026706;28;20069;-55
2023/10/15 03:49:45;;;;;;;16.40;3.58;;;;;;;6.89;91.34;100521.06;5026132;28;20555;-57
2023/10/15 03:52:20;;;;;;;14.60;3.78;;;;;;;6.90;90.99;100516.69;5025448;28;20140;-56
2023/10/15 03:54:50;;;;;;;21.67;3.13;;;;;;;6.87;91.11;100516.81;5028461;28;20049;-57
2023/10/15 03:57:22;;;;;;;10.07;2.17;;;;;;;6.87;91.10;100517.66;5030880;28;20602;-56
2023/10/15 03:59:52;;;;;;;18.15;3.33;;;;;;;6.85;90.97;100512.50;5027088;28;20482;-56
2023/10/15 04:02:54;;;;;;;19.77;4.22;;;;;;;6.88;90.55;100519.34;5026413;28;20203;-54
2023/10/15 04:05:14;;;;;;;15.38;3.55;;;;;;;6.88;90.35;100521.13;5024154;28;20092;-55
2023/10/15 04:07:48;;;;;;;15.82;4.22;;;;;;;6.85;90.21;100507.28;5031731;28;20148;-55
2023/10/15 04:10:23;;;;;;;13.32;3.17;;;;;;;6.84;90.33;100515.16;5024606;28;20073;-53
2023/10/15 04:12:51;;;;;;;11.80;2.60;;;;;;;6.82;91.33;100509.16;5029465;28;20077;-58
2023/10/15 04:15:21;;;;;;;20.95;3.22;;;;;;;6.81;90.58;100507.47;5026178;28;20568;-52
2023/10/15 04:17:48;;;;;;;15.23;3.42;;;;;;;6.79;90.43;100504.06;5026531;28;20400;-56
2023/10/15 04:20:25;;;;;;;15.57;2.95;;;;;;;6.81;91.05;100507.47;5027795;28;20092;-53
2023/10/15 04:22:53;;;;;;;14.52;3.20;;;;;;;6.79;90.90;100502.28;5030246;28;20057;-58
2023/10/15 04:25:25;;;;;;;18.35;4.22;;;;;;;6.77;90.90;100498.06;5028852;28;20415;-55
2023/10/15 04:27:54;;;;;;;17.13;3.17;;;;;;;6.74;90.74;100488.56;5029845;28;20555;-50
2023/10/15 04:30:22;;;;;;;19.70;3.13;;;;;;;6.74;91.37;100492.97;5029046;28;20053;-56
2023/10/15 04:32:50;;;;;;;14.27;3.08;;;;;;;6.71;90.81;100487.84;5026882;28;20081;-54
2023/10/15 04:35:25;;;;;;;17.27;3.35;;;;;;;6.69;91.53;100498.41;5030143;28;20392;-55
2023/10/15 04:37:53;;;;;;;;;;;;;;;6.69;91.01;100476.63;5032000;28;20080;-51
2023/10/15 04:40:23;;;;;;;17.27;2.45;;;;;;;6.68;91.16;100477.56;5030808;28;20011;-55
2023/10/15 04:42:51;;;;;;;20.08;3.10;;;;;;;6.67;90.73;100475.88;5027948;28;20136;-56
2023/10/15 04:48:03;;;;;;;20.45;3.88;;;;;;;6.62;91.74;100480.44;5026374;28;20128;-56
2023/10/15 04:50:36;;;;;;;15.93;3.20;;;;;;;6.60;92.02;100481.34;5030215;28;20114;-56
2023/10/15 04:53:12;;;;;;;15.20;2.80;;;;;;;6.57;92.42;100486.75;5031257;28;20077;-57
2023/10/15 04:55:42;;;;;;;12.50;2.63;;;;;;;6.53;92.20;100479.94;5029426;28;20111;-54
2023/10/15 04:58:10;;;;;;;15.63;3.38;;;;;;;6.54;91.94;100483.41;5032935;28;20618;-51
2023/10/15 05:00:42;;;;;;;16.13;3.20;;;;;;;6.51;92.45;100478.31;5030458;28;20076;-55
2023/10/15 05:03:09;;;;;;;16.35;2.92;;;;;;;6.51;92.29;100480.91;5030246;28;20056;-53
2023/10/15 05:05:37;;;;;;;17.92;2.78;;;;;;;6.50;92.93;100481.84;5029282;28;20634;-58
2023/10/15 05:08:10;;;;;;;15.48;3.42;;;;;;;6.48;93.00;100505.44;5028770;28;20628;-59
2023/10/15 05:10:49;;;;;;;20.73;3.40;;;;;;;6.47;92.42;100488.03;5028448;28;20156;-55
2023/10/15 05:13:17;;;;;;;20.08;3.15;;;;;;;6.46;93.05;100496.81;5033622;28;20128;-54
2023/10/15 05:15:46;;;;;;;18.40;3.70;;;;;;;6.44;93.33;100501.28;5030382;28;20061;-56
2023/10/15 05:18:15;;;;;;;14.48;2.95;;;;;;;6.43;93.36;100502.16;5034211;28;20562;-52
2023/10/15 05:20:50;;;;;;;15.63;3.03;;;;;;;6.44;93.92;100506.50;5028513;28;20144;-51
2023/10/15 05:23:19;;;;;;;10.00;2.60;;;;;;;6.41;94.18;100504.00;5027035;28;20061;-56
2023/10/15 05:25:49;;;;;;;16.83;2.92;;;;;;;6.42;94.11;100491.78;5027814;28;20058;-55
2023/10/15 05:28:17;;;;;;;18.52;3.70;;;;;;;6.40;94.11;100501.47;5027157;28;20118;-57
2023/10/15 05:30:44;;;;;;;13.68;3.20;;;;;;;6.40;94.14;100504.09;5031177;28;20057;-54
2023/10/15 05:33:12;;;;;;;14.52;2.78;;;;;;;6.37;94.13;100501.59;5028546;28;20049;-57
2023/10/15 05:35:43;;;;;;;12.50;3.15;;;;;;;6.40;95.16;100517.16;5030146;28;20551;-51
2023/10/15 05:38:10;;;;;;;17.45;3.70;;;;;;;6.38;94.48;100517.22;5028974;28;20081;-56
2023/10/15 05:40:38;;;;;;;22.33;3.78;;;;;;;6.39;94.18;100515.44;5028686;28;20688;-54
2023/10/15 05:43:05;;;;;;;18.80;3.00;;;;;;;6.39;94.29;100513.66;5028265;28;20061;-54
2023/10/15 05:45:33;;;;;;;14.88;2.83;;;;;;;6.44;93.30;100509.13;5027644;28;20057;-53
2023/10/15 05:48:00;;;;;;;16.60;3.13;;;;;;;6.42;93.85;100510.94;5030067;28;20561;-53
2023/10/15 05:50:29;;;;;;;10.48;3.03;;;;;;;6.46;93.49;100524.72;5028099;28;20578;-56
2023/10/15 05:52:56;;;;;;;17.90;3.08;;;;;;;6.45;93.54;100531.72;5029147;28;20151;-56
2023/10/15 05:55:23;;;;;;;12.48;2.60;;;;;;;6.50;93.60;100523.69;5033269;28;20939;-54
2023/10/15 05:57:51;;;;;;;18.58;4.57;;;;;;;6.51;93.40;100518.38;5029917;28;20057;-53
2023/10/15 06:00:18;;;;;;;10.27;2.47;;;;;;;6.49;93.24;100512.38;5031397;28;20442;-54
2023/10/15 06:02:52;;;;;;;11.15;2.83;;;;;;;6.53;93.03;100523.56;5030443;28;20542;-56
2023/10/15 06:05:19;;;;;;;14.57;3.17;;;;;;;6.53;92.49;100518.34;5029378;28;20115;-54
2023/10/15 06:07:47;;;;;;;17.70;3.03;;;;;;;6.53;92.79;100513.94;5030064;28;20132;-51
2023/10/15 06:10:16;;;;;;;17.35;3.03;;;;;;;6.59;92.43;100507.59;5028855;28;20049;-49
2023/10/15 06:12:44;;;;;;;19.08;3.72;;;;;;;6.56;92.83;100516.41;5028922;28;20574;-54
2023/10/15 06:15:14;;;;;;;19.88;3.63;;;;;;;6.60;92.56;100514.50;5026248;28;20111;-52
2023/10/15 06:17:46;;;;;;;13.10;3.08;;;;;;;6.61;92.27;100510.97;5026411;28;20104;-55
2023/10/15 06:20:14;;;;;;;12.52;3.05;;;;;;;6.60;92.73;100515.34;5025534;28;20539;-51
2023/10/15 06:22:45;;;;;;;18.55;3.83;;;;;;;6.64;92.65;100528.31;5029299;28;20084;-51
2023/10/15 06:25:16;;;;;;;10.77;3.10;;;;;;;6.67;92.92;100530.81;5025901;28;20055;-55
2023/10/15 06:27:44;;;;;;;11.02;2.50;;;;;;;6.64;92.78;100537.00;5031479;28;20116;-56
2023/10/15 06:30:14;;;;;;;15.93;3.45;;;;;;;6.63;92.43;100531.84;5031357;28;20057;-55
2023/10/15 06:32:49;;;;;;;13.40;2.85;;;;;;;6.72;92.72;100534.06;5028113;28;20073;-51
2023/10/15 06:35:20;;;;;;;11.38;3.13;;;;;;;6.76;92.32;100533.00;5028442;28;20491;-51
2023/10/15 06:37:48;;;;;;;12.35;2.75;;;;;;;6.79;91.97;100546.78;5029942;28;20057;-51
2023/10/15 06:40:16;;;;;;;13.52;2.50;;;;;;;6.74;92.35;100538.28;5028624;28;20095;-56
2023/10/15 06:42:51;;;;;;;11.32;3.03;;;;;;;6.80;91.84;100542.41;5028911;28;20073;-57
2023/10/15 06:45:19;;;;;;;14.55;2.70;;;;;;;6.87;92.01;100537.75;5028564;28;20103;-57
2023/10/15 06:47:51;;;;;;;15.45;2.60;;;;;;;6.90;91.29;100535.84;5031496;28;20107;-51
2023/10/15 06:50:21;;;;;;;15.13;3.55;;;;;;;6.86;91.68;100549.97;5029563;28;20141;-55
2023/10/15 06:52:53;;;;;;;15.20;3.08;;;;;;;6.88;91.26;100558.59;5027857;28;20516;-57
2023/10/15 06:55:21;;;;;;;15.13;2.72;;;;;;;6.88;90.99;100550.75;5028250;28;20053;-57
2023/10/15 06:57:49;;;;;;;13.15;2.38;;;;;;;6.90;90.87;100548.94;5026906;28;20099;-57
2023/10/15 07:00:23;;;;;;;10.57;2.28;;;;;;;6.98;91.20;100566.88;5025588;28;20132;-53
2023/10/15 07:02:52;;;;;;;14.70;2.70;;;;;;;7.01;91.05;100551.06;5033359;28;20092;-53
2023/10/15 07:05:23;;;;;;;17.80;3.55;;;;;;;7.01;89.95;100562.38;5032212;28;20057;-56
2023/10/15 07:07:50;;;;;;;14.18;2.63;;;;;;;7.08;90.43;100573.44;5029448;28;20087;-51
2023/10/15 07:10:18;;;;;;;14.68;3.08;;;;;;;7.18;90.09;100556.38;5027439;28;20133;-54
2023/10/15 07:12:46;;;;;;;15.43;2.88;;;;;;;7.26;89.37;100569.97;5027794;28;20118;-53
2023/10/15 07:15:15;;;;;;;11.95;2.30;;;;;;;7.46;89.01;100584.75;5027774;28;20045;-55
2023/10/15 07:17:43;;;;;;;13.40;2.75;;;;;;;7.46;88.60;100574.25;5028550;28;20117;-57
2023/10/15 07:20:16;;;;;;;18.52;3.30;;;;;;;7.59;87.32;100585.03;5026314;28;20133;-57
2023/10/15 07:22:46;;;;;;;10.30;2.80;;;;;;;7.41;87.96;100575.41;5028894;28;20053;-56
2023/10/15 07:25:16;;;;;;;13.52;2.70;;;;;;;7.68;87.42;100575.88;5024288;28;20056;-53
2023/10/15 07:27:45;;;;;;;16.63;2.40;;;;;;;7.81;86.25;100571.75;5029870;28;20081;-57
2023/10/15 07:30:14;;;;;;;6.60;1.95;;;;;;;7.63;86.30;100604.06;5038440;28;20050;-58
2023/10/15 07:32:42;;;;;;;15.52;2.60;;;;;;;7.74;86.42;100591.28;5028188;28;20092;-55
2023/10/15 07:35:11;;;;;;;12.95;2.33;;;;;;;7.78;86.53;100609.41;5029811;28;20049;-54
2023/10/15 07:37:40;;;;;;;11.70;2.88;;;;;;;7.77;86.09;100589.38;5018684;28;21109;-56
2023/10/15 07:40:19;;;;;;;14.40;2.40;;;;;;;7.86;86.32;100582.84;5027465;28;20516;-55
2023/10/15 07:42:50;;;;;;;10.80;1.95;;;;;;;8.04;85.73;100591.59;5026754;28;20096;-56
2023/10/15 07:45:18;;;;;;;15.00;3.17;;;;;;;7.95;84.89;100602.53;5025429;28;20075;-53
2023/10/15 07:47:46;;;;;;;8.10;2.50;;;;;;;7.75;85.50;100600.88;5024409;28;20081;-53
2023/10/15 07:50:17;;;;;;;12.65;2.92;;;;;;;7.72;86.16;100601.03;5024052;28;20056;-55
2023/10/15 07:52:45;;;;;;;15.05;2.75;;;;;;;7.78;85.82;100601.56;5027051;28;20133;-55
2023/10/15 07:55:13;;;;;;;13.02;2.55;;;;;;;7.68;86.22;100595.06;5027146;28;20482;-55
2023/10/15 07:57:41;;;;;;;13.05;3.03;;;;;;;7.86;86.01;100602.06;5028851;28;20080;-54
2023/10/15 08:00:15;;;;;;;13.70;3.60;;;;;;;8.05;84.23;100607.25;5034948;28;20080;-56
2023/10/15 08:02:45;;;;;;;12.75;2.88;;;;;;;8.03;83.59;100610.88;5042169;28;20057;-58
2023/10/15 08:05:13;;;;;;;7.30;2.00;;;;;;;8.27;83.51;100614.06;5033856;28;20519;-58
2023/10/15 08:07:43;;;;;;;11.50;2.55;;;;;;;8.35;82.80;100612.75;5033533;28;20409;-56
2023/10/15 08:10:11;;;;;;;8.07;1.73;;;;;;;8.50;83.04;100610.31;5037268;28;20496;-51
2023/10/15 08:12:38;;;;;;;14.82;2.80;;;;;;;8.15;82.53;100623.41;5033235;28;20045;-57
2023/10/15 08:15:06;;;;;;;8.65;2.72;;;;;;;8.15;82.49;100619.91;5034070;28;20049;-57
2023/10/15 08:17:34;;;;;;;9.77;2.42;;;;;;;8.19;82.99;100622.31;5034398;28;20045;-51
2023/10/15 08:20:04;;;;;;;9.38;1.95;;;;;;;8.10;82.28;100617.50;5038418;28;20117;-53
2023/10/15 08:22:31;;;;;;;11.63;2.25;;;;;;;8.25;81.79;100606.28;5032751;28;20092;-58
2023/10/15 08:24:59;;;;;;;12.13;2.75;;;;;;;8.39;81.17;100607.41;5034866;28;20639;-52
2023/10/15 08:27:26;;;;;;;10.32;2.70;;;;;;;8.29;81.94;100620.09;5030460;28;20404;-51
2023/10/15 08:29:54;;;;;;;11.15;2.67;;;;;;;8.49;80.11;100608.63;5034752;28;20046;-56
2023/10/15 08:32:21;;;;;;;7.00;2.13;;;;;;;8.79;79.91;100622.81;5034090;28;20418;-55
2023/10/15 08:34:48;;;;;;;5.78;1.58;;;;;;;8.80;78.91;100623.66;5034207;28;20545;-58
2023/10/15 08:37:15;;;;;;;7.50;2.20;;;;;;;8.85;78.20;100637.41;5031329;28;20077;-54
2023/10/15 08:39:43;;;;;;;5.78;1.63;;;;;;;8.96;77.38;100626.34;5033720;28;20521;-55
2023/10/15 08:42:13;;;;;;;5.95;1.40;;;;;;;8.79;76.72;100635.09;5033689;28;20057;-59
2023/10/15 08:44:41;;;;;;;6.47;1.90;;;;;;;8.46;77.96;100614.88;5031836;28;20107;-57
2023/10/15 08:47:10;;;;;;;6.05;1.63;;;;;;;8.75;77.96;100638.81;5034934;28;20099;-52
2023/10/15 08:49:47;;;;;;;5.88;1.42;;;;;;;8.89;76.79;100654.69;5036584;22;20163;-73
2023/10/15 08:52:16;;;;;;;13.65;1.92;;;;;;;8.68;77.51;100646.13;5026249;28;20406;-74
2023/10/15 08:54:44;;;;;;;7.20;1.67;;;;;;;8.63;77.82;100640.25;5026655;28;20263;-75
2023/10/15 08:57:13;;;;;;;7.95;2.13;;;;;;;8.63;77.46;100641.13;5013693;28;20385;-75
2023/10/15 08:59:43;;;;;;;5.15;1.45;;;;;;;8.82;77.49;100642.78;5013489;28;20069;-75
2023/10/15 09:02:10;;;;;;;6.55;2.15;;;;;;;9.10;76.63;100643.09;5006923;28;20041;-77
2023/10/15 09:04:38;;;;;;;6.95;1.65;;;;;;;9.09;75.69;100632.63;5008275;28;20045;-76
2023/10/15 09:07:06;;;;;;;9.48;2.17;;;;;;;9.21;75.39;100632.00;5010029;28;20110;-76
2023/10/15 09:09:34;;;;;;;7.90;1.63;;;;;;;9.86;74.62;100642.47;5022647;28;20057;-76
2023/10/15 09:12:01;;;;;;;4.25;1.20;;;;;;;10.12;71.68;100652.38;5025274;28;20045;-75
2023/10/15 09:14:38;;;;;;;7.10;1.90;;;;;;;10.18;70.26;100668.75;5005364;28;20046;-75
2023/10/15 09:17:09;;;;;;;6.18;1.33;;;;;;;9.90;70.92;100658.00;5024799;28;20111;-74
2023/10/15 09:19:46;;;;;;;5.43;1.20;;;;;;;9.78;70.66;100663.13;5020229;28;20469;-76
2023/10/15 09:22:16;;;;;;;6.00;1.40;;;;;;;9.74;71.66;100665.06;4991087;28;20046;-75
2023/10/15 09:24:45;;;;;;;5.60;1.30;;;;;;;9.58;71.49;100661.56;5007718;28;20049;-75
2023/10/15 09:27:13;;;;;;;7.47;1.55;;;;;;;9.52;72.92;100660.13;5026427;28;20049;-74
2023/10/15 09:29:43;;;;;;;5.35;1.35;;;;;;;9.45;72.79;100663.13;5042640;28;20140;-75
2023/10/15 09:32:11;;;;;;;6.65;1.50;;;;;;;9.24;72.11;100666.00;5020672;28;20049;-76
2023/10/15 09:34:39;;;;;;;7.20;1.58;;;;;;;9.21;73.28;100675.81;5025241;28;20053;-76
2023/10/15 09:37:07;;;;;;;3.75;1.05;;;;;;;9.28;72.64;100666.69;5022335;28;20103;-75
2023/10/15 09:39:35;;;;;;;4.35;1.38;;;;;;;9.30;72.39;100678.78;5016122;28;20081;-75
2023/10/15 09:42:03;;;;;;;4.80;1.13;;;;;;;9.44;72.47;100685.94;5026424;28;20077;-74
2023/10/15 09:44:32;;;;;;;6.32;1.30;;;;;;;9.32;71.62;100694.47;5005070;28;20053;-75
2023/10/15 09:47:03;;;;;;;6.22;1.30;;;;;;;9.28;72.43;100678.03;5023130;28;20143;-74
2023/10/15 09:49:33;;;;;;;8.38;1.80;;;;;;;9.40;73.24;100689.66;5025917;28;20108;-75
2023/10/15 09:52:10;;;;;;;6.57;2.05;;;;;;;9.11;72.90;100689.41;5025796;28;20103;-74
2023/10/15 09:54:42;;;;;;;5.22;1.58;;;;;;;9.06;73.48;100694.06;5008372;28;20119;-74
2023/10/15 09:57:11;;;;;;;6.63;1.52;;;;;;;9.19;72.17;100688.19;5027262;28;20064;-74
2023/10/15 09:59:38;;;;;;;12.35;1.88;;;;;;;9.42;71.76;100694.84;5029429;28;20104;-75
2023/10/15 10:02:12;;;;;;;8.15;1.95;;;;;;;9.34;72.01;100703.13;5024088;28;20042;-75
2023/10/15 10:04:52;;;;;;;5.95;1.40;;;;;;;9.33;71.90;100704.06;5024821;28;20115;-75
2023/10/15 10:07:38;;;;;;;6.07;1.48;;;;;;;9.15;71.13;100705.88;5020645;28;20056;-75
2023/10/15 10:10:28;;;;;;;3.85;1.15;;;;;;;9.20;71.91;100711.72;5023416;28;20506;-76
2023/10/15 10:13:06;;;;;;;3.75;1.30;;;;;;;9.25;71.67;100699.22;5041261;28;20042;-74
2023/10/15 10:15:41;;;;;;;7.28;1.77;;;;;;;9.20;72.85;100703.00;4987825;28;20100;-75
2023/10/15 10:18:11;;;;;;;7.53;1.70;;;;;;;9.13;72.10;100707.72;5007558;28;20053;-74
2023/10/15 10:20:39;;;;;;;6.25;1.48;;;;;;;8.98;72.41;100701.47;5019133;28;20055;-74
2023/10/15 10:23:07;;;;;;;4.10;1.40;;;;;;;9.12;72.51;100701.63;5015915;28;20370;-76
2023/10/15 10:25:42;;;;;;;8.88;1.40;;;;;;;9.22;71.96;100698.50;5021865;28;20065;-75
2023/10/15 10:28:20;;;;;;;5.00;1.35;;;;;;;9.38;72.50;100699.41;5016276;28;20057;-75
2023/10/15 10:30:55;;;;;;;12.95;1.38;;;;;;;9.47;71.08;100695.47;5024771;28;20195;-77
2023/10/15 10:33:42;;;;;;;7.28;1.00;;;;;;;9.55;70.42;100696.75;5015360;28;20079;-77
2023/10/15 10:36:15;;;;;;;4.63;1.00;;;;;;;9.62;70.38;100697.25;5026890;28;20059;-74
2023/10/15 10:38:43;;;;;;;7.68;1.30;;;;;;;9.84;69.75;100694.31;5023405;28;20107;-76
2023/10/15 10:41:15;;;;;;;5.68;1.10;;;;;;;10.37;68.96;100695.78;5009580;28;20057;-76
2023/10/15 10:43:53;;;;;;;13.05;1.50;;;;;;;10.12;69.32;100696.25;5038667;28;20053;-73
2023/10/15 10:46:44;;;;;;;6.65;1.30;;;;;;;10.44;68.34;100701.53;5020221;28;20535;-74
2023/10/15 10:49:18;;;;;;;5.82;1.35;;;;;;;10.51;67.54;100693.19;5005832;28;20107;-75
2023/10/15 10:52:14;;;;;;;3.30;1.00;;;;;;;10.51;65.69;100701.09;5007474;28;20099;-76
2023/10/15 10:54:48;;;;;;;5.80;1.85;;;;;;;10.11;67.04;100700.69;5007477;28;20049;-75
2023/10/15 10:57:20;;;;;;;3.58;1.50;;;;;;;9.70;68.06;100688.97;5020706;28;20045;-74
2023/10/15 10:59:48;;;;;;;4.10;0.90;;;;;;;9.59;69.20;100686.91;5004131;28;20107;-75
2023/10/15 11:02:17;;;;;;;4.70;1.00;;;;;;;9.57;69.60;100684.38;5008420;28;20091;-75
2023/10/15 11:04:45;;;;;;;6.25;1.20;;;;;;;9.59;69.54;100682.50;5023152;28;20107;-75
2023/10/15 11:07:15;;;;;;;3.58;1.27;;;;;;;9.69;70.24;100682.00;5023678;28;20077;-76
2023/10/15 11:09:42;;;;;;;7.53;1.90;;;;;;;9.56;69.94;100681.81;5025258;28;20041;-76
2023/10/15 11:12:12;;;;;;;5.40;1.05;;;;;;;9.45;69.74;100678.91;5025684;28;20049;-75
2023/10/15 11:14:40;;;;;;;2.55;0.70;;;;;;;9.52;69.05;100681.13;5007755;28;20057;-76
2023/10/15 11:17:10;;;;;;;5.88;1.00;;;;;;;9.81;67.77;100689.22;5023957;28;20050;-76
2023/10/15 11:19:46;;;;;;;2.42;0.82;;;;;;;10.29;67.29;100682.19;5019681;28;20067;-76
2023/10/15 11:22:14;;;;;;;2.53;1.17;;;;;;;10.92;64.67;100670.66;5022320;28;20045;-76
2023/10/15 11:24:45;;;;;;;8.35;1.50;;;;;;;10.86;63.79;100680.63;5023050;28;20061;-75
2023/10/15 11:27:13;;;;;;;3.97;0.88;;;;;;;10.88;64.23;100670.81;5022607;28;20500;-75
2023/10/15 11:29:42;;;;;;;2.78;0.90;;;;;;;10.83;64.03;100678.16;5023332;28;20090;-75
2023/10/15 11:32:11;;;;;;;5.63;1.80;;;;;;;10.83;64.11;100672.88;5024291;28;20057;-76
2023/10/15 11:34:39;;;;;;;5.72;1.27;;;;;;;10.71;63.86;100680.66;4990000;28;20140;-76
2023/10/15 11:37:09;;;;;;;5.72;1.10;;;;;;;10.40;64.71;100677.16;5021943;28;20472;-76
2023/10/15 11:39:47;;;;;;;2.78;0.93;;;;;;;10.24;65.40;100692.09;5024865;28;20053;-76
2023/10/15 11:42:18;;;;;;;4.68;1.20;;;;;;;10.55;65.19;100683.34;5020103;28;20103;-76
2023/10/15 11:44:46;;;;;;;5.28;1.48;;;;;;;10.63;63.76;100687.22;5036707;28;20073;-76
2023/10/15 11:47:19;;;;;;;3.47;0.70;;;;;;;10.75;63.97;100682.16;5016798;28;20049;-75
2023/10/15 11:49:50;;;;;;;3.28;1.08;;;;;;;10.77;63.21;100682.94;5007477;28;20104;-76
2023/10/15 11:52:22;;;;;;;10.57;1.52;;;;;;;10.41;64.17;100697.31;5023310;28;20060;-76
2023/10/15 11:54:50;;;;;;;5.43;1.13;;;;;;;10.05;63.48;100689.66;5020644;28;20061;-76
2023/10/15 11:57:26;;;;;;;3.25;1.10;;;;;;;11.33;60.60;100681.31;5038790;28;20144;-75
2023/10/15 11:59:54;;;;;;;5.07;1.10;;;;;;;14.56;52.78;100689.41;5005105;28;20092;-77
2023/10/15 12:02:29;;;;;;;4.15;0.90;;;;;;;16.25;47.49;100677.06;5008365;28;20091;-81
2023/10/15 12:05:10;;;;;;;5.20;1.17;;;;;;;17.59;44.04;100674.63;5018730;28;20112;-77
2023/10/15 12:07:40;;;;;;;4.75;1.30;;;;;;;19.82;42.36;100680.75;5019383;28;20136;-77